createdAt,value
2023-03-02T00:02:16.158Z,57.67
2023-03-02T00:07:38.309Z,58.60
2023-03-02T00:13:00.580Z,61.63
2023-03-02T00:18:22.457Z,60.07
2023-03-02T00:23:45.071Z,62.90
2023-03-02T00:29:06.651Z,55.57
2023-03-02T00:34:28.251Z,56.80
2023-03-02T00:39:52.786Z,56.83
2023-03-02T00:45:14.080Z,61.03
2023-03-02T00:50:41.280Z,55.93
2023-03-02T00:56:03.953Z,66.00
2023-03-02T01:01:27.887Z,64.57
2023-03-02T01:06:49.646Z,49.00
2023-03-02T01:12:12.567Z,61.83
2023-03-02T01:17:34.389Z,58.10
2023-03-02T01:22:56.252Z,59.63
2023-03-02T01:28:17.555Z,51.33
2023-03-02T01:33:39.282Z,58.80
2023-03-02T01:39:01.101Z,50.67
2023-03-02T01:44:41.495Z,62.40
2023-03-02T01:50:03.121Z,61.13
2023-03-02T01:55:32.611Z,56.20
2023-03-02T02:00:56.620Z,60.60
2023-03-02T02:06:33.861Z,53.37
2023-03-02T02:11:55.725Z,54.57
2023-03-02T02:17:19.191Z,57.20
2023-03-02T02:22:58.748Z,55.20
2023-03-02T02:28:29.134Z,58.23
2023-03-02T02:33:56.802Z,58.47
2023-03-02T02:39:41.783Z,54.37
2023-03-02T02:45:07.433Z,53.20
2023-03-02T02:50:35.345Z,62.90
2023-03-02T02:56:00.093Z,54.13
2023-03-02T03:01:26.407Z,58.33
2023-03-02T03:06:53.867Z,52.97
2023-03-02T03:12:20.616Z,53.70
2023-03-02T03:17:47.435Z,54.03
2023-03-02T03:23:08.820Z,57.10
2023-03-02T03:28:33.704Z,55.77
2023-03-02T03:34:00.873Z,51.60
2023-03-02T03:39:26.378Z,64.53
2023-03-02T03:44:48.195Z,57.23
2023-03-02T03:50:10.635Z,51.80
2023-03-02T03:55:32.813Z,52.07
2023-03-02T04:00:54.475Z,53.77
2023-03-02T04:06:19.101Z,46.00
2023-03-02T04:11:43.362Z,55.37
2023-03-02T04:17:07.289Z,56.13
2023-03-02T04:22:32.406Z,54.83
2023-03-02T04:27:54.580Z,57.13
2023-03-02T04:33:18.890Z,47.63
2023-03-02T04:38:40.376Z,50.57
2023-03-02T04:44:02.339Z,51.17
2023-03-02T04:49:24.451Z,53.07
2023-03-02T04:54:46.037Z,57.33
2023-03-02T05:00:10.042Z,54.17
2023-03-02T05:05:32.283Z,49.67
2023-03-02T05:10:54.163Z,51.77
2023-03-02T05:16:16.204Z,46.90
2023-03-02T05:21:38.550Z,53.87
2023-03-02T05:27:00.218Z,47.43
2023-03-02T05:32:21.774Z,52.53
2023-03-02T05:37:44.907Z,55.30
2023-03-02T05:43:07.143Z,48.97
2023-03-02T05:48:29.913Z,54.83
2023-03-02T05:53:51.898Z,48.37
2023-03-02T05:59:13.543Z,44.03
2023-03-02T06:04:35.272Z,52.93
2023-03-02T06:09:57.474Z,41.50
2023-03-02T06:15:19.672Z,46.67
2023-03-02T06:20:42.138Z,48.30
2023-03-02T06:26:12.910Z,49.90
2023-03-02T06:31:35.495Z,50.13
2023-03-02T06:36:57.385Z,47.37
2023-03-02T06:42:18.837Z,55.80
2023-03-02T06:47:40.796Z,54.33
2023-03-02T06:53:02.366Z,54.23
2023-03-02T06:58:23.922Z,47.03
2023-03-02T07:03:45.975Z,52.77
2023-03-02T07:09:07.519Z,57.20
2023-03-02T07:14:29.056Z,68.40
2023-03-02T07:19:50.724Z,61.97
2023-03-02T07:25:13.238Z,63.60
2023-03-02T07:30:34.906Z,63.43
2023-03-02T07:35:56.507Z,71.33
2023-03-02T07:41:18.304Z,75.27
2023-03-02T07:46:40.061Z,69.07
2023-03-02T07:52:02.388Z,74.93
2023-03-02T07:57:24.116Z,71.00
2023-03-02T08:02:45.806Z,69.03
2023-03-02T08:08:07.549Z,65.70
2023-03-02T08:13:29.097Z,69.87
2023-03-02T08:18:51.058Z,73.17
2023-03-02T08:24:13.170Z,87.70
2023-03-02T08:29:34.881Z,77.97
2023-03-02T08:34:56.405Z,77.40
2023-03-02T08:40:18.015Z,68.50
2023-03-02T08:45:39.810Z,67.57
2023-03-02T08:51:07.947Z,55.83
2023-03-02T08:56:33.240Z,54.37
2023-03-02T09:01:55.462Z,49.70
2023-03-02T09:07:17.583Z,50.10
2023-03-02T09:12:39.260Z,48.93
2023-03-02T09:18:01.061Z,46.20
2023-03-02T09:23:23.450Z,49.80
2023-03-02T09:28:45.079Z,40.40
2023-03-02T09:34:06.943Z,41.10
2023-03-02T09:39:28.680Z,44.37
2023-03-02T09:45:10.303Z,37.87
2023-03-02T09:50:36.151Z,44.80
2023-03-02T09:56:00.531Z,37.90
2023-03-02T10:01:40.702Z,42.33
2023-03-02T10:07:35.402Z,39.70
2023-03-02T10:13:13.457Z,39.93
2023-03-02T10:18:50.100Z,45.63
2023-03-02T10:24:39.759Z,36.50
2023-03-02T10:30:03.224Z,45.10
2023-03-02T10:35:27.455Z,45.53
2023-03-02T10:40:57.080Z,42.03
2023-03-02T10:46:18.787Z,44.70
2023-03-02T10:51:40.499Z,38.07
2023-03-02T10:57:04.796Z,39.63
2023-03-02T11:02:28.488Z,40.53
2023-03-02T11:07:57.767Z,44.77
2023-03-02T11:13:28.277Z,47.60
2023-03-02T11:19:26.294Z,49.93
2023-03-02T11:24:53.972Z,38.90
2023-03-02T11:30:24.915Z,44.70
2023-03-02T11:35:58.495Z,42.40
2023-03-02T11:41:36.748Z,45.73
2023-03-02T11:47:02.053Z,44.97
2023-03-02T11:52:27.519Z,35.10
2023-03-02T11:57:53.632Z,43.97
2023-03-02T12:03:18.245Z,47.63
2023-03-02T12:08:46.523Z,41.67
2023-03-02T12:14:27.097Z,44.03
2023-03-02T12:19:50.435Z,47.37
2023-03-02T12:25:41.873Z,40.73
2023-03-02T12:31:07.024Z,40.57
2023-03-02T12:36:35.842Z,45.50
2023-03-02T12:42:31.326Z,40.40
2023-03-02T12:48:18.428Z,43.77
2023-03-02T12:53:41.337Z,51.43
2023-03-02T12:59:02.556Z,44.57
2023-03-02T13:04:26.804Z,44.03
2023-03-02T13:09:56.884Z,43.87
2023-03-02T13:15:18.916Z,45.27
2023-03-02T13:20:43.325Z,36.23
2023-03-02T13:26:06.641Z,36.67
2023-03-02T13:31:28.941Z,35.30
2023-03-02T13:36:51.518Z,32.00
2023-03-02T13:42:35.691Z,30.80
2023-03-02T13:47:59.300Z,34.30
2023-03-02T13:53:21.432Z,32.00
2023-03-02T13:58:42.950Z,29.20
2023-03-02T14:04:04.929Z,25.33
2023-03-02T14:09:27.492Z,26.87
2023-03-02T14:14:49.249Z,22.73
2023-03-02T14:20:14.393Z,20.50
2023-03-02T14:25:36.315Z,20.40
2023-03-02T14:30:59.496Z,19.37
2023-03-02T14:36:30.042Z,17.17
2023-03-02T14:41:54.383Z,16.40
2023-03-02T14:47:19.586Z,19.80
2023-03-02T14:52:56.853Z,20.87
2023-03-02T14:58:25.913Z,20.07
2023-03-02T15:03:47.932Z,20.83
2023-03-02T15:09:11.099Z,21.40
2023-03-02T15:14:32.622Z,22.60
2023-03-02T15:19:54.486Z,20.33
2023-03-02T15:25:16.128Z,17.33
2023-03-02T15:30:37.813Z,19.47
2023-03-02T15:36:00.249Z,21.37
2023-03-02T15:41:22.109Z,19.47
2023-03-02T15:46:43.827Z,21.90
2023-03-02T15:52:05.547Z,22.33
2023-03-02T15:57:27.262Z,24.13
2023-03-02T16:02:50.291Z,22.83
2023-03-02T16:08:12.073Z,26.00
2023-03-02T16:13:34.025Z,22.10
2023-03-02T16:18:57.525Z,24.80
2023-03-02T16:24:19.231Z,24.20
2023-03-02T16:29:41.042Z,24.27
2023-03-02T16:35:02.676Z,32.83
2023-03-02T16:40:24.775Z,28.37
2023-03-02T16:45:47.050Z,26.67
2023-03-02T16:51:09.702Z,25.90
2023-03-02T16:56:31.766Z,29.20
2023-03-02T17:01:53.556Z,26.80
2023-03-02T17:07:15.277Z,27.20
2023-03-02T17:12:36.963Z,30.17
2023-03-02T17:17:58.873Z,64.23
2023-03-02T17:23:20.430Z,34.17
2023-03-02T17:28:41.979Z,33.67
2023-03-02T17:34:03.769Z,31.73
2023-03-02T17:39:25.902Z,33.70
2023-03-02T17:44:49.482Z,32.47
2023-03-02T17:50:12.752Z,30.40
2023-03-02T17:55:34.735Z,28.87
2023-03-02T18:00:56.573Z,31.73
2023-03-02T18:06:20.713Z,32.00
2023-03-02T18:11:42.700Z,37.50
2023-03-02T18:17:07.653Z,37.73
2023-03-02T18:22:29.300Z,37.50
2023-03-02T18:27:50.917Z,39.90
2023-03-02T18:33:12.512Z,42.70
2023-03-02T18:38:35.754Z,42.67
2023-03-02T18:43:57.418Z,43.87
2023-03-02T18:49:19.188Z,40.90
2023-03-02T18:54:40.898Z,43.53
2023-03-02T19:00:06.721Z,46.87
2023-03-02T19:05:29.813Z,53.27
2023-03-02T19:10:56.549Z,58.77
2023-03-02T19:16:18.713Z,56.07
2023-03-02T19:21:40.530Z,50.30
2023-03-02T19:27:02.920Z,51.67
2023-03-02T19:32:25.011Z,54.00
2023-03-02T19:37:47.340Z,49.80
2023-03-02T19:43:09.148Z,50.80
2023-03-02T19:48:30.920Z,51.73
2023-03-02T19:53:52.290Z,53.90
2023-03-02T19:59:13.916Z,53.63
2023-03-02T20:04:35.849Z,48.33
2023-03-02T20:09:57.412Z,53.03
2023-03-02T20:15:18.921Z,48.53
2023-03-02T20:20:41.406Z,44.07
2023-03-02T20:26:04.954Z,43.67
2023-03-02T20:31:28.065Z,46.90
2023-03-02T20:36:51.417Z,44.83
2023-03-02T20:42:13.870Z,41.93
2023-03-02T20:47:36.163Z,43.07
2023-03-02T20:52:58.602Z,44.43
2023-03-02T20:58:19.982Z,42.27
2023-03-02T21:03:41.967Z,42.53
2023-03-02T21:09:06.125Z,42.63
2023-03-02T21:14:28.594Z,42.80
2023-03-02T21:19:50.120Z,56.90
2023-03-02T21:25:12.078Z,54.03
2023-03-02T21:30:35.046Z,50.17
2023-03-02T21:35:56.720Z,47.87
2023-03-02T21:41:19.073Z,52.33
2023-03-02T21:46:41.122Z,47.73
2023-03-02T21:52:08.030Z,52.07
2023-03-02T21:57:29.844Z,58.00
2023-03-02T22:02:52.209Z,54.37
2023-03-02T22:08:18.875Z,57.47
2023-03-02T22:13:40.677Z,56.43
2023-03-02T22:19:08.024Z,52.30
2023-03-02T22:24:32.102Z,57.27
2023-03-02T22:29:56.792Z,53.43
2023-03-02T22:35:25.567Z,52.37
2023-03-02T22:40:47.634Z,52.50
2023-03-02T22:46:15.906Z,54.63
2023-03-02T22:51:37.629Z,53.77
2023-03-02T22:56:59.333Z,54.13
2023-03-02T23:02:25.303Z,54.27
2023-03-02T23:07:46.676Z,54.10
2023-03-02T23:13:11.453Z,55.97
2023-03-02T23:18:34.017Z,55.93
2023-03-02T23:23:56.105Z,57.90
2023-03-02T23:29:19.001Z,59.30
2023-03-02T23:34:40.645Z,56.83
2023-03-02T23:40:02.133Z,59.53
2023-03-02T23:45:24.008Z,54.70
2023-03-02T23:50:46.024Z,56.40
2023-03-02T23:56:07.782Z,63.57
